sensor_id;sensor_type;location;lat;lon;timestamp;temperature;humidity
1355;DHT22;671;48.972;9.276;2022-10-22T00:00:40;15.60;99.90
1355;DHT22;671;48.972;9.276;2022-10-22T00:03:07;15.50;99.90
1355;DHT22;671;48.972;9.276;2022-10-22T00:05:33;15.50;99.90
1355;DHT22;671;48.972;9.276;2022-10-22T00:07:59;15.50;99.90
1355;DHT22;671;48.972;9.276;2022-10-22T00:10:26;15.50;99.90
1355;DHT22;671;48.972;9.276;2022-10-22T00:12:52;15.50;99.90
1355;DHT22;671;48.972;9.276;2022-10-22T00:15:19;15.50;99.90
1355;DHT22;671;48.972;9.276;2022-10-22T00:17:45;15.40;99.90
1355;DHT22;671;48.972;9.276;2022-10-22T00:20:12;15.40;99.90
1355;DHT22;671;48.972;9.276;2022-10-22T00:22:38;15.40;99.90
1355;DHT22;671;48.972;9.276;2022-10-22T00:25:05;15.40;99.90
1355;DHT22;671;48.972;9.276;2022-10-22T00:27:32;15.30;99.90
1355;DHT22;671;48.972;9.276;2022-10-22T00:29:58;15.30;99.90
1355;DHT22;671;48.972;9.276;2022-10-22T00:32:24;15.30;99.90
1355;DHT22;671;48.972;9.276;2022-10-22T00:34:51;15.30;99.90
1355;DHT22;671;48.972;9.276;2022-10-22T00:37:17;15.20;99.90
1355;DHT22;671;48.972;9.276;2022-10-22T00:39:44;15.30;99.90
1355;DHT22;671;48.972;9.276;2022-10-22T00:42:18;15.20;99.90
1355;DHT22;671;48.972;9.276;2022-10-22T00:47:51;15.20;99.90
1355;DHT22;671;48.972;9.276;2022-10-22T00:50:25;15.10;99.90
1355;DHT22;671;48.972;9.276;2022-10-22T00:52:54;15.10;99.90
1355;DHT22;671;48.972;9.276;2022-10-22T00:55:21;15.10;99.90
1355;DHT22;671;48.972;9.276;2022-10-22T00:57:49;15.00;99.90
1355;DHT22;671;48.972;9.276;2022-10-22T01:00:16;15.00;99.90
1355;DHT22;671;48.972;9.276;2022-10-22T01:02:43;15.00;99.90
1355;DHT22;671;48.972;9.276;2022-10-22T01:05:10;15.00;99.90
1355;DHT22;671;48.972;9.276;2022-10-22T01:07:43;14.90;99.90
1355;DHT22;671;48.972;9.276;2022-10-22T01:12:50;15.00;99.90
1355;DHT22;671;48.972;9.276;2022-10-22T01:15:37;15.00;99.90
1355;DHT22;671;48.972;9.276;2022-10-22T01:26:20;14.80;99.90
1355;DHT22;671;48.972;9.276;2022-10-22T01:31:20;14.90;99.90
1355;DHT22;671;48.972;9.276;2022-10-22T01:33:49;14.80;99.90
1355;DHT22;671;48.972;9.276;2022-10-22T01:36:17;14.80;99.90
1355;DHT22;671;48.972;9.276;2022-10-22T01:38:44;14.90;99.90
1355;DHT22;671;48.972;9.276;2022-10-22T01:41:12;14.90;99.90
1355;DHT22;671;48.972;9.276;2022-10-22T01:43:39;14.90;99.90
1355;DHT22;671;48.972;9.276;2022-10-22T01:46:06;14.90;99.90
1355;DHT22;671;48.972;9.276;2022-10-22T01:54:12;14.80;99.90
1355;DHT22;671;48.972;9.276;2022-10-22T01:56:52;14.80;99.90
1355;DHT22;671;48.972;9.276;2022-10-22T01:59:49;14.80;99.90
1355;DHT22;671;48.972;9.276;2022-10-22T02:07:39;14.80;99.90
1355;DHT22;671;48.972;9.276;2022-10-22T02:10:08;14.80;99.90
1355;DHT22;671;48.972;9.276;2022-10-22T02:12:36;14.80;99.90
1355;DHT22;671;48.972;9.276;2022-10-22T02:15:04;14.80;99.90
1355;DHT22;671;48.972;9.276;2022-10-22T02:17:32;14.80;99.90
1355;DHT22;671;48.972;9.276;2022-10-22T02:20:04;14.80;99.90
1355;DHT22;671;48.972;9.276;2022-10-22T02:22:33;14.80;99.90
1355;DHT22;671;48.972;9.276;2022-10-22T02:24:59;14.80;99.90
1355;DHT22;671;48.972;9.276;2022-10-22T02:27:29;14.80;99.90
1355;DHT22;671;48.972;9.276;2022-10-22T02:32:31;14.80;99.90
1355;DHT22;671;48.972;9.276;2022-10-22T02:34:58;14.70;99.90
1355;DHT22;671;48.972;9.276;2022-10-22T02:37:26;14.60;99.90
1355;DHT22;671;48.972;9.276;2022-10-22T02:39:54;14.60;99.90
1355;DHT22;671;48.972;9.276;2022-10-22T02:42:23;14.60;99.90
1355;DHT22;671;48.972;9.276;2022-10-22T02:44:51;14.50;99.90
1355;DHT22;671;48.972;9.276;2022-10-22T02:47:18;14.50;99.90
1355;DHT22;671;48.972;9.276;2022-10-22T02:49:44;14.50;99.90
1355;DHT22;671;48.972;9.276;2022-10-22T02:52:11;14.50;99.90
1355;DHT22;671;48.972;9.276;2022-10-22T02:54:37;14.50;99.90
1355;DHT22;671;48.972;9.276;2022-10-22T02:57:03;14.50;99.90
1355;DHT22;671;48.972;9.276;2022-10-22T02:59:30;14.50;99.90
1355;DHT22;671;48.972;9.276;2022-10-22T03:01:56;14.50;99.90
1355;DHT22;671;48.972;9.276;2022-10-22T03:04:23;14.40;99.90
1355;DHT22;671;48.972;9.276;2022-10-22T03:06:49;14.40;99.90
1355;DHT22;671;48.972;9.276;2022-10-22T03:09:16;14.40;99.90
1355;DHT22;671;48.972;9.276;2022-10-22T03:11:42;14.40;99.90
1355;DHT22;671;48.972;9.276;2022-10-22T03:14:09;14.40;99.90
1355;DHT22;671;48.972;9.276;2022-10-22T03:16:35;14.40;99.90
1355;DHT22;671;48.972;9.276;2022-10-22T03:19:02;14.40;99.90
1355;DHT22;671;48.972;9.276;2022-10-22T03:21:34;14.40;99.90
1355;DHT22;671;48.972;9.276;2022-10-22T03:24:06;14.30;99.90
1355;DHT22;671;48.972;9.276;2022-10-22T03:26:34;14.30;99.90
1355;DHT22;671;48.972;9.276;2022-10-22T03:29:01;14.40;99.90
1355;DHT22;671;48.972;9.276;2022-10-22T03:31:28;14.30;99.90
1355;DHT22;671;48.972;9.276;2022-10-22T03:33:54;14.30;99.90
1355;DHT22;671;48.972;9.276;2022-10-22T03:36:21;14.30;99.90
1355;DHT22;671;48.972;9.276;2022-10-22T03:38:47;14.40;99.90
1355;DHT22;671;48.972;9.276;2022-10-22T03:41:14;14.40;99.90
1355;DHT22;671;48.972;9.276;2022-10-22T03:43:41;14.40;99.90
1355;DHT22;671;48.972;9.276;2022-10-22T03:46:07;14.40;99.90
1355;DHT22;671;48.972;9.276;2022-10-22T03:48:34;14.40;99.90
1355;DHT22;671;48.972;9.276;2022-10-22T03:51:01;14.40;99.90
1355;DHT22;671;48.972;9.276;2022-10-22T03:53:27;14.40;99.90
1355;DHT22;671;48.972;9.276;2022-10-22T03:55:54;14.40;99.90
1355;DHT22;671;48.972;9.276;2022-10-22T03:58:20;14.40;99.90
1355;DHT22;671;48.972;9.276;2022-10-22T04:00:46;14.40;99.90
1355;DHT22;671;48.972;9.276;2022-10-22T04:03:13;14.40;99.90
1355;DHT22;671;48.972;9.276;2022-10-22T04:05:39;14.30;99.90
1355;DHT22;671;48.972;9.276;2022-10-22T04:08:06;14.30;99.90
1355;DHT22;671;48.972;9.276;2022-10-22T04:10:32;14.30;99.90
1355;DHT22;671;48.972;9.276;2022-10-22T04:12:59;14.30;99.90
1355;DHT22;671;48.972;9.276;2022-10-22T04:15:25;14.30;99.90
1355;DHT22;671;48.972;9.276;2022-10-22T04:17:53;14.40;99.90
1355;DHT22;671;48.972;9.276;2022-10-22T04:20:20;14.30;99.90
1355;DHT22;671;48.972;9.276;2022-10-22T04:22:47;14.40;99.90
1355;DHT22;671;48.972;9.276;2022-10-22T04:25:13;14.40;99.90
1355;DHT22;671;48.972;9.276;2022-10-22T04:27:39;14.40;99.90
1355;DHT22;671;48.972;9.276;2022-10-22T04:30:06;14.40;99.90
1355;DHT22;671;48.972;9.276;2022-10-22T04:32:33;14.40;99.90
1355;DHT22;671;48.972;9.276;2022-10-22T04:34:59;14.40;99.90
1355;DHT22;671;48.972;9.276;2022-10-22T04:37:26;14.40;99.90
1355;DHT22;671;48.972;9.276;2022-10-22T04:39:52;14.30;99.90
1355;DHT22;671;48.972;9.276;2022-10-22T04:42:19;14.30;99.90
1355;DHT22;671;48.972;9.276;2022-10-22T04:44:45;14.20;99.90
1355;DHT22;671;48.972;9.276;2022-10-22T04:47:12;14.20;99.90
1355;DHT22;671;48.972;9.276;2022-10-22T04:49:39;14.10;99.90
1355;DHT22;671;48.972;9.276;2022-10-22T04:52:05;14.10;99.90
1355;DHT22;671;48.972;9.276;2022-10-22T04:54:32;14.00;99.90
1355;DHT22;671;48.972;9.276;2022-10-22T04:56:59;14.00;99.90
1355;DHT22;671;48.972;9.276;2022-10-22T04:59:25;14.00;99.90
1355;DHT22;671;48.972;9.276;2022-10-22T05:01:52;14.00;99.90
1355;DHT22;671;48.972;9.276;2022-10-22T05:04:18;14.00;99.90
1355;DHT22;671;48.972;9.276;2022-10-22T05:06:45;13.90;99.90
1355;DHT22;671;48.972;9.276;2022-10-22T05:09:21;13.90;99.90
1355;DHT22;671;48.972;9.276;2022-10-22T05:11:48;13.90;99.90
1355;DHT22;671;48.972;9.276;2022-10-22T05:14:21;13.90;99.90
1355;DHT22;671;48.972;9.276;2022-10-22T05:16:48;13.80;99.90
1355;DHT22;671;48.972;9.276;2022-10-22T05:19:26;13.80;99.90
1355;DHT22;671;48.972;9.276;2022-10-22T05:21:54;13.80;99.90
1355;DHT22;671;48.972;9.276;2022-10-22T05:24:22;13.70;99.90
1355;DHT22;671;48.972;9.276;2022-10-22T05:26:53;13.70;99.90
1355;DHT22;671;48.972;9.276;2022-10-22T05:29:19;13.60;99.90
1355;DHT22;671;48.972;9.276;2022-10-22T05:31:46;13.60;99.90
1355;DHT22;671;48.972;9.276;2022-10-22T05:34:13;13.50;99.90
1355;DHT22;671;48.972;9.276;2022-10-22T05:36:40;13.50;99.90
1355;DHT22;671;48.972;9.276;2022-10-22T05:39:06;13.50;99.90
1355;DHT22;671;48.972;9.276;2022-10-22T05:41:34;13.50;99.90
1355;DHT22;671;48.972;9.276;2022-10-22T05:44:01;13.40;99.90
1355;DHT22;671;48.972;9.276;2022-10-22T05:46:32;13.40;99.90
1355;DHT22;671;48.972;9.276;2022-10-22T05:49:00;13.40;99.90
1355;DHT22;671;48.972;9.276;2022-10-22T05:51:30;13.40;99.90
1355;DHT22;671;48.972;9.276;2022-10-22T05:54:01;13.40;99.90
1355;DHT22;671;48.972;9.276;2022-10-22T05:56:30;13.40;99.90
1355;DHT22;671;48.972;9.276;2022-10-22T05:58:57;13.40;99.90
1355;DHT22;671;48.972;9.276;2022-10-22T06:01:27;13.40;99.90
1355;DHT22;671;48.972;9.276;2022-10-22T06:03:58;13.50;99.90
1355;DHT22;671;48.972;9.276;2022-10-22T06:09:22;13.40;99.90
1355;DHT22;671;48.972;9.276;2022-10-22T06:11:50;13.40;99.90
1355;DHT22;671;48.972;9.276;2022-10-22T06:14:18;13.50;99.90
1355;DHT22;671;48.972;9.276;2022-10-22T06:16:45;13.50;99.90
1355;DHT22;671;48.972;9.276;2022-10-22T06:19:13;13.50;99.90
1355;DHT22;671;48.972;9.276;2022-10-22T06:21:40;13.60;99.90
1355;DHT22;671;48.972;9.276;2022-10-22T06:24:07;13.70;99.90
1355;DHT22;671;48.972;9.276;2022-10-22T06:26:34;13.70;99.90
1355;DHT22;671;48.972;9.276;2022-10-22T06:29:01;13.70;99.90
1355;DHT22;671;48.972;9.276;2022-10-22T06:31:28;13.80;99.90
1355;DHT22;671;48.972;9.276;2022-10-22T06:33:58;13.80;99.90
1355;DHT22;671;48.972;9.276;2022-10-22T06:36:24;13.80;99.90
1355;DHT22;671;48.972;9.276;2022-10-22T06:38:52;13.80;99.90
1355;DHT22;671;48.972;9.276;2022-10-22T06:41:19;13.90;99.90
1355;DHT22;671;48.972;9.276;2022-10-22T06:43:45;13.90;99.90
1355;DHT22;671;48.972;9.276;2022-10-22T06:46:17;14.00;99.90
1355;DHT22;671;48.972;9.276;2022-10-22T06:48:55;14.00;99.90
1355;DHT22;671;48.972;9.276;2022-10-22T06:51:22;14.10;99.90
1355;DHT22;671;48.972;9.276;2022-10-22T06:53:49;14.20;99.90
1355;DHT22;671;48.972;9.276;2022-10-22T06:56:18;14.20;99.90
1355;DHT22;671;48.972;9.276;2022-10-22T06:58:48;14.30;99.90
1355;DHT22;671;48.972;9.276;2022-10-22T07:01:17;14.40;99.90
1355;DHT22;671;48.972;9.276;2022-10-22T07:03:44;14.50;99.90
1355;DHT22;671;48.972;9.276;2022-10-22T07:06:13;14.50;99.90
1355;DHT22;671;48.972;9.276;2022-10-22T07:08:40;14.60;99.90
1355;DHT22;671;48.972;9.276;2022-10-22T07:11:13;14.60;99.90
1355;DHT22;671;48.972;9.276;2022-10-22T07:13:39;14.70;99.90
1355;DHT22;671;48.972;9.276;2022-10-22T07:16:06;14.80;99.90
1355;DHT22;671;48.972;9.276;2022-10-22T07:18:33;14.90;99.90
1355;DHT22;671;48.972;9.276;2022-10-22T07:21:00;14.90;99.90
1355;DHT22;671;48.972;9.276;2022-10-22T07:23:27;15.00;99.90
1355;DHT22;671;48.972;9.276;2022-10-22T07:25:54;15.10;99.90
1355;DHT22;671;48.972;9.276;2022-10-22T07:28:21;15.10;99.90
1355;DHT22;671;48.972;9.276;2022-10-22T07:30:48;15.20;99.90
1355;DHT22;671;48.972;9.276;2022-10-22T07:33:14;15.30;99.90
1355;DHT22;671;48.972;9.276;2022-10-22T07:35:41;15.40;99.90
1355;DHT22;671;48.972;9.276;2022-10-22T07:38:08;15.50;99.90
1355;DHT22;671;48.972;9.276;2022-10-22T07:40:35;15.50;99.90
1355;DHT22;671;48.972;9.276;2022-10-22T07:43:02;15.60;99.90
1355;DHT22;671;48.972;9.276;2022-10-22T07:45:29;15.60;99.90
1355;DHT22;671;48.972;9.276;2022-10-22T07:47:55;15.80;99.90
1355;DHT22;671;48.972;9.276;2022-10-22T07:50:22;15.90;99.90
1355;DHT22;671;48.972;9.276;2022-10-22T07:52:48;16.00;99.90
1355;DHT22;671;48.972;9.276;2022-10-22T07:55:15;16.10;99.90
1355;DHT22;671;48.972;9.276;2022-10-22T07:57:41;16.20;99.90
1355;DHT22;671;48.972;9.276;2022-10-22T08:00:08;16.40;99.90
1355;DHT22;671;48.972;9.276;2022-10-22T08:02:35;16.40;99.90
1355;DHT22;671;48.972;9.276;2022-10-22T08:05:01;16.50;99.90
1355;DHT22;671;48.972;9.276;2022-10-22T08:07:28;16.50;99.90
1355;DHT22;671;48.972;9.276;2022-10-22T08:09:54;16.60;99.90
1355;DHT22;671;48.972;9.276;2022-10-22T08:12:21;16.60;99.90
1355;DHT22;671;48.972;9.276;2022-10-22T08:14:47;16.70;99.90
1355;DHT22;671;48.972;9.276;2022-10-22T08:17:14;16.80;99.90
1355;DHT22;671;48.972;9.276;2022-10-22T08:19:40;16.90;99.90
1355;DHT22;671;48.972;9.276;2022-10-22T08:22:07;16.90;99.90
1355;DHT22;671;48.972;9.276;2022-10-22T08:24:34;16.80;99.90
1355;DHT22;671;48.972;9.276;2022-10-22T08:27:00;16.80;99.90
1355;DHT22;671;48.972;9.276;2022-10-22T08:29:27;16.60;99.90
1355;DHT22;671;48.972;9.276;2022-10-22T08:31:54;16.60;99.90
1355;DHT22;671;48.972;9.276;2022-10-22T08:34:20;16.60;99.90
1355;DHT22;671;48.972;9.276;2022-10-22T08:36:47;16.50;99.90
1355;DHT22;671;48.972;9.276;2022-10-22T08:39:13;16.50;99.90
1355;DHT22;671;48.972;9.276;2022-10-22T08:48:04;16.40;99.90
1355;DHT22;671;48.972;9.276;2022-10-22T08:50:38;16.50;99.90
1355;DHT22;671;48.972;9.276;2022-10-22T08:53:12;16.40;99.90
1355;DHT22;671;48.972;9.276;2022-10-22T08:55:39;16.50;99.90
1355;DHT22;671;48.972;9.276;2022-10-22T08:58:35;16.50;99.90
1355;DHT22;671;48.972;9.276;2022-10-22T09:03:55;16.60;99.90
1355;DHT22;671;48.972;9.276;2022-10-22T09:06:28;16.70;99.90
1355;DHT22;671;48.972;9.276;2022-10-22T09:08:57;16.80;99.90
1355;DHT22;671;48.972;9.276;2022-10-22T09:11:37;16.90;99.90
1355;DHT22;671;48.972;9.276;2022-10-22T09:14:04;17.00;99.90
1355;DHT22;671;48.972;9.276;2022-10-22T09:21:49;17.20;99.90
1355;DHT22;671;48.972;9.276;2022-10-22T09:24:46;17.30;99.90
1355;DHT22;671;48.972;9.276;2022-10-22T09:27:19;17.40;99.90
1355;DHT22;671;48.972;9.276;2022-10-22T09:29:47;17.50;99.90
1355;DHT22;671;48.972;9.276;2022-10-22T09:32:15;17.50;99.90
1355;DHT22;671;48.972;9.276;2022-10-22T09:34:46;17.60;99.90
1355;DHT22;671;48.972;9.276;2022-10-22T09:37:16;17.70;99.90
1355;DHT22;671;48.972;9.276;2022-10-22T09:39:46;17.80;99.90
1355;DHT22;671;48.972;9.276;2022-10-22T09:42:17;18.00;99.90
1355;DHT22;671;48.972;9.276;2022-10-22T09:44:54;18.00;99.90
1355;DHT22;671;48.972;9.276;2022-10-22T09:52:34;18.10;99.90
1355;DHT22;671;48.972;9.276;2022-10-22T09:55:12;18.20;99.90
1355;DHT22;671;48.972;9.276;2022-10-22T09:57:39;18.30;99.90
1355;DHT22;671;48.972;9.276;2022-10-22T10:00:10;18.30;99.90
1355;DHT22;671;48.972;9.276;2022-10-22T10:02:40;18.40;99.90
1355;DHT22;671;48.972;9.276;2022-10-22T10:05:17;18.50;99.90
1355;DHT22;671;48.972;9.276;2022-10-22T10:07:44;18.50;99.90
1355;DHT22;671;48.972;9.276;2022-10-22T10:10:20;18.60;99.90
1355;DHT22;671;48.972;9.276;2022-10-22T10:16:20;18.70;99.90
1355;DHT22;671;48.972;9.276;2022-10-22T10:24:53;18.90;99.90
1355;DHT22;671;48.972;9.276;2022-10-22T10:27:34;18.90;99.90
1355;DHT22;671;48.972;9.276;2022-10-22T10:30:18;19.00;99.90
1355;DHT22;671;48.972;9.276;2022-10-22T10:35:55;19.20;99.90
1355;DHT22;671;48.972;9.276;2022-10-22T10:49:41;19.80;99.90
1355;DHT22;671;48.972;9.276;2022-10-22T10:57:48;19.70;99.90
1355;DHT22;671;48.972;9.276;2022-10-22T11:00:19;19.70;99.90
1355;DHT22;671;48.972;9.276;2022-10-22T11:03:21;19.60;99.90
1355;DHT22;671;48.972;9.276;2022-10-22T11:06:02;19.70;99.90
1355;DHT22;671;48.972;9.276;2022-10-22T11:08:30;19.60;99.90
1355;DHT22;671;48.972;9.276;2022-10-22T11:13:35;19.70;99.90
1355;DHT22;671;48.972;9.276;2022-10-22T11:19:15;19.70;99.90
1355;DHT22;671;48.972;9.276;2022-10-22T11:24:48;19.80;99.90
1355;DHT22;671;48.972;9.276;2022-10-22T11:27:34;19.70;99.90
1355;DHT22;671;48.972;9.276;2022-10-22T11:30:22;19.80;99.90
1355;DHT22;671;48.972;9.276;2022-10-22T11:32:56;19.90;99.90
1355;DHT22;671;48.972;9.276;2022-10-22T11:35:46;19.90;99.90
1355;DHT22;671;48.972;9.276;2022-10-22T11:38:15;19.90;99.90
1355;DHT22;671;48.972;9.276;2022-10-22T11:40:50;20.00;99.90
1355;DHT22;671;48.972;9.276;2022-10-22T11:43:33;20.00;99.90
1355;DHT22;671;48.972;9.276;2022-10-22T11:48:42;20.10;99.90
1355;DHT22;671;48.972;9.276;2022-10-22T11:51:45;20.10;99.90
1355;DHT22;671;48.972;9.276;2022-10-22T12:02:37;20.10;99.90
1355;DHT22;671;48.972;9.276;2022-10-22T12:07:55;20.20;99.90
1355;DHT22;671;48.972;9.276;2022-10-22T12:10:33;20.20;99.90
1355;DHT22;671;48.972;9.276;2022-10-22T12:13:50;20.30;99.90
1355;DHT22;671;48.972;9.276;2022-10-22T12:16:21;20.30;99.90
1355;DHT22;671;48.972;9.276;2022-10-22T12:18:52;20.20;99.90
1355;DHT22;671;48.972;9.276;2022-10-22T12:21:20;20.10;99.90
1355;DHT22;671;48.972;9.276;2022-10-22T12:23:48;20.10;99.90
1355;DHT22;671;48.972;9.276;2022-10-22T12:26:36;20.10;99.90
1355;DHT22;671;48.972;9.276;2022-10-22T12:29:09;20.20;99.90
1355;DHT22;671;48.972;9.276;2022-10-22T12:31:37;20.20;99.90
1355;DHT22;671;48.972;9.276;2022-10-22T12:34:04;20.10;99.90
1355;DHT22;671;48.972;9.276;2022-10-22T12:36:34;20.20;99.90
1355;DHT22;671;48.972;9.276;2022-10-22T12:39:08;20.20;99.90
1355;DHT22;671;48.972;9.276;2022-10-22T12:41:36;20.30;99.90
1355;DHT22;671;48.972;9.276;2022-10-22T12:44:05;20.40;99.90
1355;DHT22;671;48.972;9.276;2022-10-22T12:46:33;20.50;99.90
1355;DHT22;671;48.972;9.276;2022-10-22T12:49:03;20.50;99.90
1355;DHT22;671;48.972;9.276;2022-10-22T12:51:30;20.60;99.90
1355;DHT22;671;48.972;9.276;2022-10-22T12:54:03;20.60;99.90
1355;DHT22;671;48.972;9.276;2022-10-22T12:56:33;20.70;99.90
1355;DHT22;671;48.972;9.276;2022-10-22T13:01:54;20.90;99.90
1355;DHT22;671;48.972;9.276;2022-10-22T13:04:34;20.80;99.90
1355;DHT22;671;48.972;9.276;2022-10-22T13:09:47;20.90;99.90
1355;DHT22;671;48.972;9.276;2022-10-22T13:12:27;21.00;99.90
1355;DHT22;671;48.972;9.276;2022-10-22T13:14:53;21.00;99.90
1355;DHT22;671;48.972;9.276;2022-10-22T13:17:39;20.90;99.90
1355;DHT22;671;48.972;9.276;2022-10-22T13:20:20;20.90;99.90
1355;DHT22;671;48.972;9.276;2022-10-22T13:27:55;21.00;99.90
1355;DHT22;671;48.972;9.276;2022-10-22T13:33:05;21.00;99.90
1355;DHT22;671;48.972;9.276;2022-10-22T13:35:35;21.10;99.90
1355;DHT22;671;48.972;9.276;2022-10-22T13:38:10;21.10;99.90
1355;DHT22;671;48.972;9.276;2022-10-22T13:40:40;21.10;99.90
1355;DHT22;671;48.972;9.276;2022-10-22T13:43:06;21.00;99.90
1355;DHT22;671;48.972;9.276;2022-10-22T13:45:33;21.00;99.90
1355;DHT22;671;48.972;9.276;2022-10-22T13:47:59;21.00;99.90
1355;DHT22;671;48.972;9.276;2022-10-22T13:50:26;21.00;99.90
1355;DHT22;671;48.972;9.276;2022-10-22T13:52:56;21.00;99.90
1355;DHT22;671;48.972;9.276;2022-10-22T13:55:28;21.00;99.90
1355;DHT22;671;48.972;9.276;2022-10-22T13:58:00;20.90;99.90
1355;DHT22;671;48.972;9.276;2022-10-22T14:00:29;21.00;99.90
1355;DHT22;671;48.972;9.276;2022-10-22T14:02:57;21.00;99.90
1355;DHT22;671;48.972;9.276;2022-10-22T14:05:24;21.10;99.90
1355;DHT22;671;48.972;9.276;2022-10-22T14:07:51;21.10;99.90
1355;DHT22;671;48.972;9.276;2022-10-22T14:10:20;21.00;99.90
1355;DHT22;671;48.972;9.276;2022-10-22T14:12:48;21.10;99.90
1355;DHT22;671;48.972;9.276;2022-10-22T14:15:17;21.10;99.90
1355;DHT22;671;48.972;9.276;2022-10-22T14:17:46;21.00;99.90
1355;DHT22;671;48.972;9.276;2022-10-22T14:20:23;21.00;99.90
1355;DHT22;671;48.972;9.276;2022-10-22T14:22:50;21.00;99.90
1355;DHT22;671;48.972;9.276;2022-10-22T14:25:24;21.00;99.90
1355;DHT22;671;48.972;9.276;2022-10-22T14:27:51;20.90;99.90
1355;DHT22;671;48.972;9.276;2022-10-22T14:30:20;21.00;99.90
1355;DHT22;671;48.972;9.276;2022-10-22T14:32:47;20.90;99.90
1355;DHT22;671;48.972;9.276;2022-10-22T14:35:18;20.90;99.90
1355;DHT22;671;48.972;9.276;2022-10-22T14:37:45;20.90;99.90
1355;DHT22;671;48.972;9.276;2022-10-22T14:40:14;20.90;99.90
1355;DHT22;671;48.972;9.276;2022-10-22T14:42:43;20.90;99.90
1355;DHT22;671;48.972;9.276;2022-10-22T14:45:18;20.90;99.90
1355;DHT22;671;48.972;9.276;2022-10-22T14:47:47;20.80;99.90
1355;DHT22;671;48.972;9.276;2022-10-22T14:50:13;20.80;99.90
1355;DHT22;671;48.972;9.276;2022-10-22T14:52:40;20.80;99.90
1355;DHT22;671;48.972;9.276;2022-10-22T14:55:09;20.70;99.90
1355;DHT22;671;48.972;9.276;2022-10-22T14:57:36;20.70;99.90
1355;DHT22;671;48.972;9.276;2022-10-22T15:00:06;20.70;99.90
1355;DHT22;671;48.972;9.276;2022-10-22T15:02:33;20.70;99.90
1355;DHT22;671;48.972;9.276;2022-10-22T15:04:59;20.70;99.90
1355;DHT22;671;48.972;9.276;2022-10-22T15:07:26;20.60;99.90
1355;DHT22;671;48.972;9.276;2022-10-22T15:09:53;20.60;99.90
1355;DHT22;671;48.972;9.276;2022-10-22T15:12:19;20.60;99.90
1355;DHT22;671;48.972;9.276;2022-10-22T15:14:46;20.50;99.90
1355;DHT22;671;48.972;9.276;2022-10-22T15:17:14;20.50;99.90
1355;DHT22;671;48.972;9.276;2022-10-22T15:19:40;20.50;99.90
1355;DHT22;671;48.972;9.276;2022-10-22T15:22:09;20.40;99.90
1355;DHT22;671;48.972;9.276;2022-10-22T15:24:36;20.30;99.90
1355;DHT22;671;48.972;9.276;2022-10-22T15:27:02;20.30;99.90
1355;DHT22;671;48.972;9.276;2022-10-22T15:29:30;20.30;99.90
1355;DHT22;671;48.972;9.276;2022-10-22T15:31:58;20.30;99.90
1355;DHT22;671;48.972;9.276;2022-10-22T15:34:26;20.20;99.90
1355;DHT22;671;48.972;9.276;2022-10-22T15:36:54;20.10;99.90
1355;DHT22;671;48.972;9.276;2022-10-22T15:39:22;20.10;99.90
1355;DHT22;671;48.972;9.276;2022-10-22T15:41:49;20.00;99.90
1355;DHT22;671;48.972;9.276;2022-10-22T15:44:24;19.90;99.90
1355;DHT22;671;48.972;9.276;2022-10-22T15:46:51;19.80;99.90
1355;DHT22;671;48.972;9.276;2022-10-22T15:49:24;19.80;99.90
1355;DHT22;671;48.972;9.276;2022-10-22T15:51:52;19.70;99.90
1355;DHT22;671;48.972;9.276;2022-10-22T15:54:21;19.60;99.90
1355;DHT22;671;48.972;9.276;2022-10-22T15:56:48;19.40;99.90
1355;DHT22;671;48.972;9.276;2022-10-22T15:59:16;19.30;99.90
1355;DHT22;671;48.972;9.276;2022-10-22T16:01:43;19.20;99.90
1355;DHT22;671;48.972;9.276;2022-10-22T16:04:10;19.10;99.90
1355;DHT22;671;48.972;9.276;2022-10-22T16:06:48;19.00;99.90
1355;DHT22;671;48.972;9.276;2022-10-22T16:09:21;18.80;99.90
1355;DHT22;671;48.972;9.276;2022-10-22T16:11:48;18.70;99.90
1355;DHT22;671;48.972;9.276;2022-10-22T16:14:16;18.60;99.90
1355;DHT22;671;48.972;9.276;2022-10-22T16:16:45;18.50;99.90
1355;DHT22;671;48.972;9.276;2022-10-22T16:19:14;18.40;99.90
1355;DHT22;671;48.972;9.276;2022-10-22T16:21:40;18.30;99.90
1355;DHT22;671;48.972;9.276;2022-10-22T16:24:08;18.20;99.90
1355;DHT22;671;48.972;9.276;2022-10-22T16:26:35;18.10;99.90
1355;DHT22;671;48.972;9.276;2022-10-22T16:29:02;18.00;99.90
1355;DHT22;671;48.972;9.276;2022-10-22T16:31:29;17.90;99.90
1355;DHT22;671;48.972;9.276;2022-10-22T16:33:56;17.80;99.90
1355;DHT22;671;48.972;9.276;2022-10-22T16:36:23;17.70;99.90
1355;DHT22;671;48.972;9.276;2022-10-22T16:38:49;17.60;99.90
1355;DHT22;671;48.972;9.276;2022-10-22T16:41:21;17.50;99.90
1355;DHT22;671;48.972;9.276;2022-10-22T16:43:50;17.40;99.90
1355;DHT22;671;48.972;9.276;2022-10-22T16:46:18;17.40;99.90
1355;DHT22;671;48.972;9.276;2022-10-22T16:48:49;17.30;99.90
1355;DHT22;671;48.972;9.276;2022-10-22T16:51:21;17.20;99.90
1355;DHT22;671;48.972;9.276;2022-10-22T16:53:50;17.10;99.90
1355;DHT22;671;48.972;9.276;2022-10-22T16:56:17;17.00;99.90
1355;DHT22;671;48.972;9.276;2022-10-22T16:58:47;17.00;99.90
1355;DHT22;671;48.972;9.276;2022-10-22T17:01:15;16.90;99.90
1355;DHT22;671;48.972;9.276;2022-10-22T17:03:41;16.80;99.90
1355;DHT22;671;48.972;9.276;2022-10-22T17:06:08;16.80;99.90
1355;DHT22;671;48.972;9.276;2022-10-22T17:08:35;16.60;99.90
1355;DHT22;671;48.972;9.276;2022-10-22T17:11:07;16.60;99.90
1355;DHT22;671;48.972;9.276;2022-10-22T17:13:33;16.60;99.90
1355;DHT22;671;48.972;9.276;2022-10-22T17:16:05;16.50;99.90
1355;DHT22;671;48.972;9.276;2022-10-22T17:18:34;16.50;99.90
1355;DHT22;671;48.972;9.276;2022-10-22T17:21:02;16.40;99.90
1355;DHT22;671;48.972;9.276;2022-10-22T17:23:29;16.40;99.90
1355;DHT22;671;48.972;9.276;2022-10-22T17:26:01;16.40;99.90
1355;DHT22;671;48.972;9.276;2022-10-22T17:28:32;16.30;99.90
1355;DHT22;671;48.972;9.276;2022-10-22T17:33:33;16.20;99.90
1355;DHT22;671;48.972;9.276;2022-10-22T17:36:01;16.10;99.90
1355;DHT22;671;48.972;9.276;2022-10-22T17:38:27;16.10;99.90
1355;DHT22;671;48.972;9.276;2022-10-22T17:40:55;16.10;99.90
1355;DHT22;671;48.972;9.276;2022-10-22T17:43:22;16.10;99.90
1355;DHT22;671;48.972;9.276;2022-10-22T17:45:48;16.00;99.90
1355;DHT22;671;48.972;9.276;2022-10-22T17:48:15;16.00;99.90
1355;DHT22;671;48.972;9.276;2022-10-22T17:50:42;16.00;99.90
1355;DHT22;671;48.972;9.276;2022-10-22T17:53:09;15.90;99.90
1355;DHT22;671;48.972;9.276;2022-10-22T17:55:36;15.80;99.90
1355;DHT22;671;48.972;9.276;2022-10-22T17:58:02;15.80;99.90
1355;DHT22;671;48.972;9.276;2022-10-22T18:00:29;15.80;99.90
1355;DHT22;671;48.972;9.276;2022-10-22T18:02:58;15.80;99.90
1355;DHT22;671;48.972;9.276;2022-10-22T18:05:26;15.70;99.90
1355;DHT22;671;48.972;9.276;2022-10-22T18:07:54;15.70;99.90
1355;DHT22;671;48.972;9.276;2022-10-22T18:10:22;15.60;99.90
1355;DHT22;671;48.972;9.276;2022-10-22T18:12:49;15.60;99.90
1355;DHT22;671;48.972;9.276;2022-10-22T18:15:16;15.50;99.90
1355;DHT22;671;48.972;9.276;2022-10-22T18:17:42;15.40;99.90
1355;DHT22;671;48.972;9.276;2022-10-22T18:20:09;15.40;99.90
1355;DHT22;671;48.972;9.276;2022-10-22T18:22:35;15.30;99.90
1355;DHT22;671;48.972;9.276;2022-10-22T18:25:02;15.30;99.90
1355;DHT22;671;48.972;9.276;2022-10-22T18:27:29;15.20;99.90
1355;DHT22;671;48.972;9.276;2022-10-22T18:29:55;15.10;99.90